createdAt,value
2017-09-13T00:01:44.148Z,99912
2017-09-13T00:04:12.247Z,99911
2017-09-13T00:06:40.349Z,99914
2017-09-13T00:09:09.240Z,99909
2017-09-13T00:11:37.611Z,99903
2017-09-13T00:14:05.716Z,99894
2017-09-13T00:16:33.805Z,99883
2017-09-13T00:19:01.923Z,99878
2017-09-13T00:21:29.996Z,99870
2017-09-13T00:23:58.118Z,99844
2017-09-13T00:26:26.735Z,99840
2017-09-13T00:28:54.827Z,99824
2017-09-13T00:31:23.709Z,99789
2017-09-13T00:33:51.811Z,99798
2017-09-13T00:36:20.992Z,99777
2017-09-13T00:38:49.390Z,99769
2017-09-13T00:41:17.477Z,99759
2017-09-13T00:43:46.679Z,99755
2017-09-13T00:46:14.753Z,99762
2017-09-13T00:48:42.851Z,99752
2017-09-13T00:51:10.941Z,99738
2017-09-13T00:53:40.960Z,99729
2017-09-13T00:56:09.061Z,99723
2017-09-13T00:58:37.918Z,99720
2017-09-13T01:01:06.020Z,99710
2017-09-13T01:03:34.088Z,99683
2017-09-13T01:06:02.192Z,99677
2017-09-13T01:08:30.510Z,99660
2017-09-13T01:10:59.382Z,99650
2017-09-13T01:13:27.518Z,99640
2017-09-13T01:15:56.601Z,99638
2017-09-13T01:18:25.486Z,99636
2017-09-13T01:20:55.076Z,99623
2017-09-13T01:23:23.201Z,99607
2017-09-13T01:25:51.298Z,99602
2017-09-13T01:28:19.381Z,99588
2017-09-13T01:30:47.489Z,99583
2017-09-13T01:33:16.563Z,99564
2017-09-13T01:35:44.667Z,99552
2017-09-13T01:38:13.565Z,99537
2017-09-13T01:40:41.663Z,99524
2017-09-13T01:43:09.780Z,99523
2017-09-13T01:45:37.889Z,99516
2017-09-13T01:48:05.978Z,99499
2017-09-13T01:50:34.090Z,99487
2017-09-13T01:53:02.200Z,99498
2017-09-13T01:55:30.332Z,99505
2017-09-13T01:57:58.403Z,99510
2017-09-13T02:00:26.524Z,99500
2017-09-13T02:02:54.601Z,99486
2017-09-13T02:05:22.680Z,99474
2017-09-13T02:07:50.769Z,99489
2017-09-13T02:10:18.873Z,99486
2017-09-13T02:12:48.091Z,99489
2017-09-13T02:15:16.332Z,99483
2017-09-13T02:17:44.459Z,99493
2017-09-13T02:20:12.567Z,99516
2017-09-13T02:22:40.688Z,99510
2017-09-13T02:25:09.764Z,99513
2017-09-13T02:27:37.859Z,99468
2017-09-13T02:30:05.939Z,99461
2017-09-13T02:32:35.006Z,99423
2017-09-13T02:35:03.498Z,99419
2017-09-13T02:37:32.695Z,99418
2017-09-13T02:40:04.256Z,99413
2017-09-13T02:42:32.558Z,99418
2017-09-13T02:45:04.292Z,99420
2017-09-13T02:47:33.485Z,99415
2017-09-13T02:50:01.621Z,99411
2017-09-13T02:52:32.799Z,99403
2017-09-13T02:55:00.967Z,99408
2017-09-13T02:57:29.139Z,99391
2017-09-13T02:59:58.290Z,99391
2017-09-13T03:02:27.475Z,99370
2017-09-13T03:04:56.837Z,99372
2017-09-13T03:07:24.946Z,99392
2017-09-13T03:09:53.126Z,99359
2017-09-13T03:12:22.392Z,99363
2017-09-13T03:14:50.552Z,99350
2017-09-13T03:17:22.950Z,99339
2017-09-13T03:19:52.219Z,99332
2017-09-13T03:22:21.422Z,99318
2017-09-13T03:24:50.333Z,99317
2017-09-13T03:27:19.423Z,99304
2017-09-13T03:29:47.601Z,99299
2017-09-13T03:32:16.565Z,99286
2017-09-13T03:34:44.743Z,99281
2017-09-13T03:37:12.898Z,99273
2017-09-13T03:39:43.086Z,99273
2017-09-13T03:42:11.219Z,99262
2017-09-13T03:44:40.112Z,99254
2017-09-13T03:47:08.244Z,99257
2017-09-13T03:49:36.355Z,99246
2017-09-13T03:52:06.172Z,99252
2017-09-13T03:54:34.471Z,99240
2017-09-13T03:57:03.351Z,99240
2017-09-13T03:59:33.480Z,99237
2017-09-13T04:02:01.730Z,99234
2017-09-13T04:04:29.851Z,99208
2017-09-13T04:06:58.941Z,99225
2017-09-13T04:09:30.708Z,99202
2017-09-13T04:11:58.824Z,99190
2017-09-13T04:14:26.922Z,99201
2017-09-13T04:16:55.811Z,99182
2017-09-13T04:19:24.699Z,99186
2017-09-13T04:21:53.652Z,99186
2017-09-13T04:24:22.145Z,99182
2017-09-13T04:26:50.622Z,99192
2017-09-13T04:29:19.848Z,99182
2017-09-13T04:31:47.999Z,99176
2017-09-13T04:34:16.125Z,99188
2017-09-13T04:36:44.298Z,99188
2017-09-13T04:39:12.440Z,99184
2017-09-13T04:41:40.591Z,99185
2017-09-13T04:44:08.704Z,99179
2017-09-13T04:46:37.653Z,99173
2017-09-13T04:49:05.749Z,99181
2017-09-13T04:51:34.721Z,99175
2017-09-13T04:54:02.874Z,99019
2017-09-13T04:56:34.707Z,99169
2017-09-13T04:59:02.807Z,99158
2017-09-13T05:01:30.915Z,99157
2017-09-13T05:03:59.039Z,99155
2017-09-13T05:06:27.177Z,99153
2017-09-13T05:08:56.049Z,99132
2017-09-13T05:11:24.141Z,99148
2017-09-13T05:13:53.018Z,99140
2017-09-13T05:16:21.116Z,99156
2017-09-13T05:18:49.284Z,99142
2017-09-13T05:21:17.508Z,99146
2017-09-13T05:23:45.609Z,99137
2017-09-13T05:26:15.683Z,99131
2017-09-13T05:28:43.794Z,99127
2017-09-13T05:31:12.353Z,99127
2017-09-13T05:33:40.492Z,99119
2017-09-13T05:36:08.598Z,99122
2017-09-13T05:38:36.804Z,99127
2017-09-13T05:41:05.847Z,99111
2017-09-13T05:43:33.963Z,99124
2017-09-13T05:46:02.051Z,99112
2017-09-13T05:48:30.142Z,99123
2017-09-13T05:50:59.036Z,99110
2017-09-13T05:53:28.404Z,99103
2017-09-13T05:55:58.485Z,99132
2017-09-13T05:58:26.591Z,99136
2017-09-13T06:00:55.791Z,99131
2017-09-13T06:03:23.879Z,99149
2017-09-13T06:05:56.376Z,99134
2017-09-13T06:08:24.480Z,99139
2017-09-13T06:10:52.566Z,99143
2017-09-13T06:13:20.732Z,99177
2017-09-13T06:15:48.817Z,99159
2017-09-13T06:18:16.926Z,99169
2017-09-13T06:20:46.840Z,99164
2017-09-13T06:23:15.936Z,99166
2017-09-13T06:25:44.097Z,99147
2017-09-13T06:28:12.197Z,99148
2017-09-13T06:30:40.478Z,99150
2017-09-13T06:33:10.484Z,99140
2017-09-13T06:35:38.967Z,99154
2017-09-13T06:38:07.340Z,99134
2017-09-13T06:40:35.415Z,99153
2017-09-13T06:43:03.745Z,99144
2017-09-13T06:45:31.850Z,99144
2017-09-13T06:48:00.744Z,99142
2017-09-13T06:50:29.751Z,99150
2017-09-13T06:52:58.630Z,99139
2017-09-13T06:55:27.502Z,99147
2017-09-13T06:57:55.616Z,99140
2017-09-13T07:00:23.733Z,99131
2017-09-13T07:02:51.897Z,99128
2017-09-13T07:05:20.019Z,99123
2017-09-13T07:07:48.940Z,99129
2017-09-13T07:10:17.034Z,99131
2017-09-13T07:12:45.140Z,99131
2017-09-13T07:15:13.210Z,99108
2017-09-13T07:17:41.314Z,99106
2017-09-13T07:20:10.333Z,99114
2017-09-13T07:22:38.409Z,99109
2017-09-13T07:25:06.520Z,99103
2017-09-13T07:27:34.665Z,99098
2017-09-13T07:30:03.712Z,99117
2017-09-13T07:32:33.727Z,99114
2017-09-13T07:35:02.598Z,99106
2017-09-13T07:37:31.797Z,99125
2017-09-13T07:40:00.323Z,99124
2017-09-13T07:42:29.297Z,99120
2017-09-13T07:44:57.391Z,99125
2017-09-13T07:47:25.515Z,99139
2017-09-13T07:49:53.603Z,99131
2017-09-13T07:52:23.280Z,99164
2017-09-13T07:54:51.392Z,99150
2017-09-13T07:57:20.239Z,99151
2017-09-13T07:59:48.572Z,99153
2017-09-13T08:02:18.582Z,99164
2017-09-13T08:04:46.922Z,99160
2017-09-13T08:07:15.237Z,99185
2017-09-13T08:09:44.227Z,99178
2017-09-13T08:12:12.353Z,99183
2017-09-13T08:14:40.476Z,99187
2017-09-13T08:17:08.579Z,99185
2017-09-13T08:19:36.738Z,99178
2017-09-13T08:22:04.826Z,98740
2017-09-13T08:24:32.945Z,99192
2017-09-13T08:27:01.028Z,99193
2017-09-13T08:29:29.927Z,99170
2017-09-13T08:31:58.019Z,99199
2017-09-13T08:34:26.110Z,99199
2017-09-13T08:36:54.580Z,99189
2017-09-13T08:39:22.663Z,99205
2017-09-13T08:41:50.772Z,99198
2017-09-13T08:44:18.856Z,99215
2017-09-13T08:46:46.969Z,99196
2017-09-13T08:49:16.228Z,99213
2017-09-13T08:51:45.111Z,99204
2017-09-13T08:54:15.137Z,99209
2017-09-13T08:56:43.249Z,99226
2017-09-13T08:59:11.350Z,99233
2017-09-13T09:01:39.438Z,99244
2017-09-13T09:04:07.556Z,99220
2017-09-13T09:06:36.561Z,99244
2017-09-13T09:09:04.684Z,99268
2017-09-13T09:11:32.755Z,99250
2017-09-13T09:14:00.858Z,99263
2017-09-13T09:16:28.968Z,99236
2017-09-13T09:18:57.116Z,99252
2017-09-13T09:21:25.952Z,99262
2017-09-13T09:23:54.064Z,99254
2017-09-13T09:26:22.163Z,99236
2017-09-13T09:28:50.272Z,99243
2017-09-13T09:31:18.748Z,99248
2017-09-13T09:33:47.875Z,99265
2017-09-13T09:36:16.733Z,99256
2017-09-13T09:38:44.864Z,99270
2017-09-13T09:41:13.931Z,99254
2017-09-13T09:43:42.796Z,99263
2017-09-13T09:46:10.887Z,99266
2017-09-13T09:48:38.986Z,99271
2017-09-13T09:51:07.927Z,99275
2017-09-13T09:53:36.011Z,99275
2017-09-13T09:56:04.117Z,99282
2017-09-13T09:58:32.261Z,99267
2017-09-13T10:01:00.344Z,99266
2017-09-13T10:03:28.440Z,99280
2017-09-13T10:05:56.546Z,99280
2017-09-13T10:08:25.548Z,99288
2017-09-13T10:10:53.662Z,99290
2017-09-13T10:13:21.763Z,99276
2017-09-13T10:15:49.869Z,99300
2017-09-13T10:18:17.969Z,99314
2017-09-13T10:20:46.059Z,99300
2017-09-13T10:23:15.252Z,99307
2017-09-13T10:25:44.121Z,99326
2017-09-13T10:28:13.083Z,99320
2017-09-13T10:30:41.178Z,99320
2017-09-13T10:33:09.294Z,99349
2017-09-13T10:35:38.652Z,99333
2017-09-13T10:38:06.745Z,99332
2017-09-13T10:40:34.852Z,99339
2017-09-13T10:43:02.975Z,99345
2017-09-13T10:45:32.780Z,99352
2017-09-13T10:48:01.475Z,99351
2017-09-13T10:50:29.578Z,99342
2017-09-13T10:52:57.665Z,99347
2017-09-13T10:55:27.672Z,99347
2017-09-13T10:57:55.883Z,99351
2017-09-13T11:00:23.988Z,99359
2017-09-13T11:02:52.142Z,99352
2017-09-13T11:05:20.229Z,99359
2017-09-13T11:07:48.340Z,99367
2017-09-13T11:10:16.435Z,99362
2017-09-13T11:12:44.536Z,99382
2017-09-13T11:15:12.617Z,99365
2017-09-13T11:17:40.744Z,99366
2017-09-13T11:20:08.841Z,99373
2017-09-13T11:22:37.011Z,99399
2017-09-13T11:25:05.140Z,99377
2017-09-13T11:27:33.988Z,99385
2017-09-13T11:30:02.069Z,99378
2017-09-13T11:32:30.180Z,99375
2017-09-13T11:34:58.308Z,99378
2017-09-13T11:37:26.746Z,99372
2017-09-13T11:39:54.836Z,99384
2017-09-13T11:42:23.730Z,99376
2017-09-13T11:44:51.803Z,99381
2017-09-13T11:47:20.159Z,99397
2017-09-13T11:49:48.255Z,99410
2017-09-13T11:52:17.596Z,99392
2017-09-13T11:54:46.473Z,99416
2017-09-13T11:57:14.554Z,99417
2017-09-13T11:59:43.787Z,99396
2017-09-13T12:02:11.886Z,99403
2017-09-13T12:04:40.891Z,99404
2017-09-13T12:07:08.996Z,99400
2017-09-13T12:09:37.079Z,99414
2017-09-13T12:12:05.185Z,99397
2017-09-13T12:14:33.287Z,99404
2017-09-13T12:17:01.377Z,99418
2017-09-13T12:19:29.491Z,99428
2017-09-13T12:21:57.784Z,99432
2017-09-13T12:24:25.945Z,99425
2017-09-13T12:26:54.083Z,99440
2017-09-13T12:29:22.509Z,99429
2017-09-13T12:31:50.576Z,99427
2017-09-13T12:34:18.697Z,99432
2017-09-13T12:36:47.724Z,99445
2017-09-13T12:39:15.819Z,99446
2017-09-13T12:41:43.984Z,99450
2017-09-13T12:44:12.072Z,99455
2017-09-13T12:46:40.228Z,99447
2017-09-13T12:49:08.334Z,99447
2017-09-13T12:51:36.680Z,99462
2017-09-13T12:54:04.974Z,99466
2017-09-13T12:56:33.399Z,99476
2017-09-13T12:59:03.164Z,99466
2017-09-13T13:01:31.264Z,99474
2017-09-13T13:04:00.372Z,99491
2017-09-13T13:06:29.549Z,99484
2017-09-13T13:08:57.623Z,99490
2017-09-13T13:11:27.660Z,99475
2017-09-13T13:13:55.814Z,99485
2017-09-13T13:16:24.923Z,99476
2017-09-13T13:18:53.236Z,99479
2017-09-13T13:21:21.324Z,99482
2017-09-13T13:23:50.339Z,99494
2017-09-13T13:26:18.431Z,99464
2017-09-13T13:28:46.552Z,99486
2017-09-13T13:31:14.624Z,99493
2017-09-13T13:33:42.720Z,99502
2017-09-13T13:36:10.833Z,99492
2017-09-13T13:38:38.908Z,99519
2017-09-13T13:41:07.037Z,99496
2017-09-13T13:43:35.243Z,99509
2017-09-13T13:46:03.770Z,99506
2017-09-13T13:48:33.071Z,99504
2017-09-13T13:51:01.704Z,99485
2017-09-13T13:53:29.812Z,99498
2017-09-13T13:55:57.910Z,99498
2017-09-13T13:58:26.011Z,99486
2017-09-13T14:00:54.171Z,99499
2017-09-13T14:03:23.049Z,99499
2017-09-13T14:05:51.161Z,99494
2017-09-13T14:08:19.292Z,99494
2017-09-13T14:10:47.363Z,99490
2017-09-13T14:13:15.449Z,99522
2017-09-13T14:15:43.540Z,99518
2017-09-13T14:18:11.619Z,99512
2017-09-13T14:20:39.703Z,99516
2017-09-13T14:23:07.825Z,99507
2017-09-13T14:25:35.912Z,99515
2017-09-13T14:28:04.000Z,99520
2017-09-13T14:30:32.084Z,99516
2017-09-13T14:33:00.193Z,99512
2017-09-13T14:35:29.044Z,99512
2017-09-13T14:37:57.216Z,99500
2017-09-13T14:40:25.323Z,99504
2017-09-13T14:42:53.451Z,99512
2017-09-13T14:45:21.567Z,99502
2017-09-13T14:47:50.493Z,99517
2017-09-13T14:50:18.672Z,99505
2017-09-13T14:52:47.821Z,99511
2017-09-13T14:55:15.889Z,99501
2017-09-13T14:57:44.004Z,99496
2017-09-13T15:00:12.192Z,99484
2017-09-13T15:02:40.334Z,99478
2017-09-13T15:05:08.424Z,99467
2017-09-13T15:07:36.557Z,99468
2017-09-13T15:10:04.657Z,99468
2017-09-13T15:12:32.771Z,99471
2017-09-13T15:15:00.904Z,99470
2017-09-13T15:17:29.003Z,99475
2017-09-13T15:19:57.129Z,99475
2017-09-13T15:22:25.988Z,99462
2017-09-13T15:24:54.100Z,99473
2017-09-13T15:27:22.200Z,99494
2017-09-13T15:29:50.320Z,99486
2017-09-13T15:32:18.516Z,99501
2017-09-13T15:34:47.359Z,99485
2017-09-13T15:37:15.464Z,99482
2017-09-13T15:39:43.573Z,99478
2017-09-13T15:42:11.678Z,99490
2017-09-13T15:44:39.777Z,99485
2017-09-13T15:47:07.882Z,99492
2017-09-13T15:49:35.968Z,99462
2017-09-13T15:52:05.540Z,99468
2017-09-13T15:54:33.670Z,99467
2017-09-13T15:57:01.776Z,99454
2017-09-13T15:59:29.864Z,99462
2017-09-13T16:01:57.984Z,99457
2017-09-13T16:04:26.083Z,99458
2017-09-13T16:06:54.184Z,99453
2017-09-13T16:09:24.096Z,99445
2017-09-13T16:11:52.960Z,99445
2017-09-13T16:14:21.057Z,99443
2017-09-13T16:16:49.160Z,99447
2017-09-13T16:19:17.254Z,99442
2017-09-13T16:21:45.355Z,99447
2017-09-13T16:24:13.459Z,99451
2017-09-13T16:26:41.557Z,99454
2017-09-13T16:29:09.647Z,99462
2017-09-13T16:31:37.752Z,99466
2017-09-13T16:34:05.908Z,99477
2017-09-13T16:36:34.931Z,99480
2017-09-13T16:39:03.844Z,99474
2017-09-13T16:41:31.951Z,99466
2017-09-13T16:44:00.053Z,99461
2017-09-13T16:46:28.156Z,99477
2017-09-13T16:48:56.239Z,99477
2017-09-13T16:51:24.362Z,99466
2017-09-13T16:53:52.459Z,99463
2017-09-13T16:56:20.597Z,99468
2017-09-13T16:58:48.683Z,99457
2017-09-13T17:01:16.793Z,99452
2017-09-13T17:03:44.891Z,99462
2017-09-13T17:06:13.019Z,99460
2017-09-13T17:08:41.109Z,99460
2017-09-13T17:11:09.181Z,99451
2017-09-13T17:13:37.281Z,99440
2017-09-13T17:16:05.368Z,99447
2017-09-13T17:18:35.387Z,99442
2017-09-13T17:21:03.492Z,99439
2017-09-13T17:23:34.230Z,99431
2017-09-13T17:26:04.353Z,99434
2017-09-13T17:28:32.508Z,99438
2017-09-13T17:31:03.405Z,99435
2017-09-13T17:33:33.672Z,99424
2017-09-13T17:36:03.479Z,99427
2017-09-13T17:38:31.627Z,99423
2017-09-13T17:41:00.858Z,99420
2017-09-13T17:43:28.983Z,99259
2017-09-13T17:45:57.200Z,99419
2017-09-13T17:48:25.425Z,99416
2017-09-13T17:50:54.175Z,99424
2017-09-13T17:53:22.275Z,99407
2017-09-13T17:55:51.224Z,99415
2017-09-13T17:58:19.322Z,99411
2017-09-13T18:00:47.491Z,99412
2017-09-13T18:03:15.993Z,99407
2017-09-13T18:05:44.856Z,99411
2017-09-13T18:08:13.725Z,99406
2017-09-13T18:10:41.988Z,99413
2017-09-13T18:13:10.108Z,99419
2017-09-13T18:15:39.165Z,99409
2017-09-13T18:18:07.302Z,99425
2017-09-13T18:20:35.500Z,99416
2017-09-13T18:23:05.159Z,99425
2017-09-13T18:25:34.080Z,99421
2017-09-13T18:28:02.434Z,99423
2017-09-13T18:30:31.040Z,99423
2017-09-13T18:32:59.114Z,99421
2017-09-13T18:35:28.046Z,99421
2017-09-13T18:37:56.665Z,99426
2017-09-13T18:40:24.987Z,99427
2017-09-13T18:42:53.201Z,99418
2017-09-13T18:45:22.209Z,99420
2017-09-13T18:47:50.735Z,99430
2017-09-13T18:50:18.879Z,99435
2017-09-13T18:52:47.600Z,99422
2017-09-13T18:55:16.719Z,99435
2017-09-13T18:57:45.909Z,99431
2017-09-13T19:00:14.004Z,99444
2017-09-13T19:02:43.092Z,99437
2017-09-13T19:05:13.693Z,99440
2017-09-13T19:07:41.776Z,99428
2017-09-13T19:10:10.488Z,99426
2017-09-13T19:12:40.899Z,99432
2017-09-13T19:15:09.012Z,99438
2017-09-13T19:17:37.735Z,99443
2017-09-13T19:20:05.864Z,99434
2017-09-13T19:22:34.005Z,99443
2017-09-13T19:25:02.468Z,99439
2017-09-13T19:27:32.257Z,99440
2017-09-13T19:30:00.372Z,99437
2017-09-13T19:32:28.537Z,99439
2017-09-13T19:34:57.099Z,99448
2017-09-13T19:37:25.260Z,99440
2017-09-13T19:39:53.342Z,99430
2017-09-13T19:42:21.447Z,99432
2017-09-13T19:44:49.544Z,99438
2017-09-13T19:47:18.427Z,99434
2017-09-13T19:49:46.569Z,99438
2017-09-13T19:52:14.927Z,99449
2017-09-13T19:54:43.652Z,99459
2017-09-13T19:57:11.769Z,99462
2017-09-13T19:59:40.775Z,99455
2017-09-13T20:02:08.896Z,99452
2017-09-13T20:04:36.990Z,99455
2017-09-13T20:07:05.109Z,99452
2017-09-13T20:09:33.258Z,99455
2017-09-13T20:12:01.508Z,99450
2017-09-13T20:14:29.707Z,99453
2017-09-13T20:16:58.808Z,99454
2017-09-13T20:19:27.048Z,99450
2017-09-13T20:21:55.909Z,99448
2017-09-13T20:24:24.184Z,99450
2017-09-13T20:26:52.285Z,99446
2017-09-13T20:29:21.499Z,99449
2017-09-13T20:31:49.595Z,99442
2017-09-13T20:34:19.727Z,99438
2017-09-13T20:36:47.843Z,99447
2017-09-13T20:39:15.918Z,99442
2017-09-13T20:41:44.025Z,99448
2017-09-13T20:44:12.125Z,99444
2017-09-13T20:46:40.203Z,99438
2017-09-13T20:49:08.320Z,99430
2017-09-13T20:51:36.412Z,99421
2017-09-13T20:54:04.519Z,99426
2017-09-13T20:56:32.782Z,99428
2017-09-13T20:59:01.284Z,99432
2017-09-13T21:01:29.473Z,99422
2017-09-13T21:03:59.485Z,99423
2017-09-13T21:06:27.714Z,99421
2017-09-13T21:08:56.011Z,99423
2017-09-13T21:11:24.091Z,99424
2017-09-13T21:13:53.212Z,99414
2017-09-13T21:16:21.904Z,99418
2017-09-13T21:18:50.125Z,99422
2017-09-13T21:21:20.236Z,99424
2017-09-13T21:23:48.588Z,99424
2017-09-13T21:26:16.739Z,99421
2017-09-13T21:28:44.819Z,99423
2017-09-13T21:31:12.917Z,99408
2017-09-13T21:33:41.774Z,99415
2017-09-13T21:36:09.947Z,99409
2017-09-13T21:38:38.063Z,99409
2017-09-13T21:41:06.467Z,99406
2017-09-13T21:43:34.643Z,99400
2017-09-13T21:46:02.743Z,99408
2017-09-13T21:48:32.177Z,99401
2017-09-13T21:51:00.281Z,99399
2017-09-13T21:53:28.381Z,99394
2017-09-13T21:55:56.477Z,99415
2017-09-13T21:58:24.579Z,99409
2017-09-13T22:00:52.679Z,99393
2017-09-13T22:03:20.788Z,99406
2017-09-13T22:05:48.887Z,99399
2017-09-13T22:08:17.955Z,99386
2017-09-13T22:10:46.061Z,99388
2017-09-13T22:13:14.171Z,99397
2017-09-13T22:15:43.059Z,99401
2017-09-13T22:18:11.160Z,99394
2017-09-13T22:20:39.256Z,99393
2017-09-13T22:23:08.763Z,99401
2017-09-13T22:25:38.193Z,99390
2017-09-13T22:28:06.276Z,99395
2017-09-13T22:30:34.608Z,99385
2017-09-13T22:33:03.637Z,99396
2017-09-13T22:35:31.726Z,99392
2017-09-13T22:37:59.871Z,99412
2017-09-13T22:40:27.963Z,99385
2017-09-13T22:42:56.041Z,99394
2017-09-13T22:45:24.155Z,99381
2017-09-13T22:47:52.316Z,99383
2017-09-13T22:50:20.425Z,99376
2017-09-13T22:52:49.287Z,99363
2017-09-13T22:55:17.383Z,99380
2017-09-13T22:57:46.275Z,99387
2017-09-13T23:00:14.373Z,99407
2017-09-13T23:02:42.491Z,99391
2017-09-13T23:05:10.632Z,99393
2017-09-13T23:07:38.751Z,99396
2017-09-13T23:10:06.849Z,99399
2017-09-13T23:12:35.004Z,99402
2017-09-13T23:15:03.887Z,99401
2017-09-13T23:17:32.793Z,99417
2017-09-13T23:20:01.704Z,99415
2017-09-13T23:22:29.847Z,99405
2017-09-13T23:24:58.013Z,99415
2017-09-13T23:27:30.044Z,99424
2017-09-13T23:29:58.889Z,99423
2017-09-13T23:32:27.001Z,99425
2017-09-13T23:34:56.061Z,99412
2017-09-13T23:37:24.208Z,99433
2017-09-13T23:39:52.325Z,99435
2017-09-13T23:42:20.464Z,99449
2017-09-13T23:44:48.607Z,99450
2017-09-13T23:47:16.774Z,99450
2017-09-13T23:49:45.007Z,99451
2017-09-13T23:52:13.165Z,99450
2017-09-13T23:54:41.299Z,99448
2017-09-13T23:57:09.402Z,99459
2017-09-13T23:59:37.589Z,99457
